Sheridan, WY

4:22 PM MDT on September 01, 2014 (GMT -0600)
Johnson County | Change Station
CLOSE
Current Station
Airport
Location: Buffalo,
Elevation: 4967 ft
Nearby Weather Stations

Elev 4967 ft 44.38 °N, 106.72 °W | Updated 29 minutes ago

Partly Cloudy
Partly Cloudy
62 °F
Feels Like 62 °F
N
12
Wind Variable Wind from North
Gusts 16 mph

Today
High -- | Low -- °F
--% Chance of Precip.
Yesterday
High -- | Low -- °F
Precip. -- in
6:30 AM 7:44 PM
Waxing Crescent, 44% visible
Pressure 29.94 in
Visibility 10.0 miles
Clouds Few 10000 ft
Dew Point 42 °F
Humidity 48%
Rainfall 0.06 in
Snow Depth 0 in
UV 5 out of 12
Pollen 7.30 out of 12
Air Quality Not available.
Flu Activity Not available.
METAR KBYG 012153Z AUTO 01010G14KT 10SM FEW100 17/06 A3003 RMK AO2 SLP137 T01670056 $

More Conditions Fewer Conditions

Pressure 29.94 in
Visibility 10.0 miles
Clouds Few 10000 ft
Dew Point 42 °F
Humidity 48%
Rainfall 0.06 in
Snow Depth 0 in
UV 5 out of 12
Pollen 7.30 out of 12
Air Quality Not available.
Flu Activity Not available.
METAR KBYG 012153Z AUTO 01010G14KT 10SM FEW100 17/06 A3003 RMK AO2 SLP137 T01670056 $

More Conditions Fewer Conditions

10-Day Weather Forecast

Almanac

Astronomy

Sep. 01, 2014 Rise Set
Actual Time 6:30 AM MDT 7:44 PM MDT
Civil Twilight 6:00 AM MDT 8:14 PM MDT
Nautical Twilight 5:23 AM MDT 8:50 PM MDT
Astronomical Twilight 4:45 AM MDT 9:29 PM MDT
Moon 1:35 PM MDT 11:30 PM MDT
Length of Visible Light 14h 14m
Length of Day
13h 14m
Tomorrow will be 3m 0s shorter.
Waxing Crescent, 44% of the Moon is Illuminated
Today
Waxing Crescent
Sep 2
First Quarter
Sep 8
Full
Sep 15
Last Quarter
Sep 24
New

Today's Extremes

State Highs State Lows

Community

WunderPhotos

Upload Photos

1,749,423 photos uploaded!

Nearby

Snow Depth

Station Depth Elevation
Big Goose 0 in 7990 ft
Sucker Creek 0 in 8880 ft
Dome Lake 0 in 8880 ft
Burgess Junction 1 in 7880 ft
Shell Creek 0 in 9580 ft

Earthquake Activity

City Distance Mag. Time & Date
No recent earthquake activity has been reported nearby.
Minimum magnitude displayed is 2.5.

Coastal Water Temperatures

Place Temperature
No Stations Reporting

Nearby Weather Stations